Ягодное

СКИДКИ НА СМАРТФОНЫ!

Карта отелей и гостиниц, располагающихся рядом с аэропортом Ягодное :

Ягодное Магаданская область 62° 32' 44.4012" N, 149° 31' 22.8612" E
Код аэродрома ИКАО
UHGE
Код аэродрома RU
УХГЕ
Координаты
N62.54567° E149.52302°
Превышение над уровнем моря
480
Основная полоса
14/32
Курс магнитный
136,8/316,8
Длина основной ВПП
700
Ширина основной ВПП
65
Покрытие основной ВПП
Нетвёрдое (гравий)
Освещение ВПП
Нет
Тип: 
Аэродром
Класс аэродрома: 
Принадлежность: 
ГА
Статус: 
Действующий
Сайт: 
E-mail аэродрома: 
Страна: 
Россия
Регион: 
Магаданская область
Город: 
Дополнительная информация: 
Горный. Оператор: Администрация поселка Ягодное Магаданской области. Построен с нуля, аэропорта здесь никогда не было. Первый технический рейс выполнил 25 мая 2012 самолет Ан-28 по маршруту Магадан - Ягодное - Магадан. ГВПП нормативно маркирована входными призмами и пос. буквой "Т".

Скидки на навигаторы!

Найти трансфер

С помощью этой формы Вы можете найти трансфер из аэропорта Ягодное в город, аэропорт или вокзал:

Погода в аэропортах:

Авиационная погода в Сочи

Регион: 
Погода METAR: 
URSS 190400Z 03002MPS 350V060 9999 VCTS -SHRA SCT016 OVC050CB 22/20 Q1008 R06/290060 R02/290060 NOSIG RMK R02/04003MPS MT OBSC QFE755
Время наблюдения
2022-08-19T04:00:00Z
Температура C
22.0
Точка росы
20.0
Направление ветра
30
Скорость ветра (узлы)
4
Метео видимость
6.21
Облачность
SCT
OVC
Нижняя граница облачности (футы)
1600
5000
Явления погоды
VCTS -SHRA
Условия полета
VFR
Аэропорт подробнее: 
SCT – разбросанная отдельная облачность; OVC – сплошная облачность;
-SHRA - слабый ливневой дождь;

Авиационная погода в Ханты-Мансийске

Регион: 
Погода METAR: 
USHH 190400Z 27002MPS 9000 -SHRA BKN004CB 12/12 Q1024 R24/290050 TEMPO 2000 SHRA BKN003 OVC010CB
Время наблюдения
2022-08-19T04:00:00Z
Температура C
12.0
Точка росы
12.0
Направление ветра
270
Скорость ветра (узлы)
4
Метео видимость
5.59
Облачность
BKN
Нижняя граница облачности (футы)
400
Явления погоды
-SHRA
Условия полета
LIFR
Аэропорт подробнее: 
BKN – значительная (рассеянная, разорванная) облачность;
-SHRA - слабый ливневой дождь;

Авиационная погода в аэропорту Сокол

Регион: 
Погода METAR: 
UHMM 190400Z 10009G14MPS 9999 -SHRA OVC025CB 14/11 Q1004 R10/70D NOSIG RMK MT OBSC QFE738 R28/12008MPS
Время наблюдения
2022-08-19T04:00:00Z
Температура C
14.0
Точка росы
11.0
Направление ветра
100
Скорость ветра (узлы)
17
Метео видимость
6.21
Облачность
OVC
Нижняя граница облачности (футы)
2500
Явления погоды
-SHRA
Условия полета
MVFR
Аэропорт подробнее: 
OVC – сплошная облачность;
-SHRA - слабый ливневой дождь;

Авиационная погода в Усть-Каменогорске

Регион: 
Погода METAR: 
UASK 190255Z 25002MPS 220V330 2100 BR BCFG SCT004 10/07 Q1015 TEMPO 0200 FG BKN002 RMK QBB120 QFE736/0981
Время наблюдения
2022-08-19T02:55:00Z
Температура C
10.0
Точка росы
7.0
Направление ветра
250
Скорость ветра (узлы)
4
Метео видимость
1.3
Облачность
SCT
Нижняя граница облачности (футы)
400
Явления погоды
BR BCFG
Условия полета
IFR
Аэропорт подробнее: 
SCT – разбросанная отдельная облачность;
FG – туман (небо не видно, температура воздуха выше нуля или ноль); BR – дымка (видимость от 1 до 9 км);